createdAt,value
2019-02-24T03:28:00.568Z,1.70
2019-02-24T03:30:30.229Z,1.90
2019-02-24T03:32:59.328Z,2.00
2019-02-24T03:35:28.440Z,1.90
2019-02-24T03:37:57.542Z,1.90
2019-02-24T03:40:26.658Z,1.90
2019-02-24T03:43:02.144Z,2.00
2019-02-24T03:45:31.257Z,2.00
2019-02-24T03:48:00.364Z,2.10
2019-02-24T03:50:30.767Z,2.10
2019-02-24T03:52:59.866Z,2.10
2019-02-24T03:55:31.559Z,2.00
2019-02-24T03:58:00.678Z,1.90
2019-02-24T04:00:31.170Z,1.70
2019-02-24T04:03:00.271Z,1.60
2019-02-24T04:05:30.955Z,1.50
2019-02-24T04:08:00.069Z,1.50
2019-02-24T04:10:30.743Z,1.40
2019-02-24T04:12:59.846Z,1.40
2019-02-24T04:15:31.476Z,1.50
2019-02-24T04:18:00.596Z,1.60
2019-02-24T04:20:32.464Z,1.60
2019-02-24T04:23:01.566Z,1.50
2019-02-24T04:25:31.073Z,1.40
2019-02-24T04:28:00.443Z,1.40
2019-02-24T04:30:29.852Z,1.40
2019-02-24T04:32:58.963Z,1.40
2019-02-24T04:35:28.059Z,1.40
2019-02-24T04:37:57.444Z,1.40
2019-02-24T04:40:26.536Z,1.40
2019-02-24T04:42:55.635Z,1.50
2019-02-24T04:45:24.743Z,1.60
2019-02-24T04:47:53.859Z,1.60
2019-02-24T04:50:22.967Z,1.60
2019-02-24T04:52:52.329Z,1.60
2019-02-24T04:55:21.452Z,1.50
2019-02-24T04:57:50.540Z,1.40
2019-02-24T05:00:20.599Z,1.40
2019-02-24T05:02:49.715Z,1.40
2019-02-24T05:05:18.811Z,1.40
2019-02-24T05:07:47.916Z,1.40
2019-02-24T05:10:17.026Z,1.40
2019-02-24T05:12:46.133Z,1.50
2019-02-24T05:15:15.531Z,1.70
2019-02-24T05:17:44.647Z,1.60
2019-02-24T05:20:13.829Z,1.50
2019-02-24T05:22:42.932Z,1.60
2019-02-24T05:25:12.211Z,1.60
2019-02-24T05:27:41.312Z,1.60
2019-02-24T05:30:10.417Z,1.50
2019-02-24T05:32:39.519Z,1.40
2019-02-24T05:35:08.615Z,1.30
2019-02-24T05:37:37.728Z,1.30
2019-02-24T05:40:06.843Z,1.30
2019-02-24T05:42:36.171Z,1.40
2019-02-24T05:45:06.217Z,1.40
2019-02-24T05:47:35.340Z,1.40
2019-02-24T05:50:05.195Z,1.40
2019-02-24T05:52:34.285Z,1.50
2019-02-24T05:55:03.640Z,1.40
2019-02-24T05:57:32.855Z,1.50
2019-02-24T06:00:04.723Z,1.60
2019-02-24T06:02:34.518Z,1.50
2019-02-24T06:05:04.178Z,1.50
2019-02-24T06:07:33.354Z,1.50
2019-02-24T06:10:03.571Z,1.60
2019-02-24T06:12:32.666Z,1.60
2019-02-24T06:15:01.789Z,1.60
2019-02-24T06:17:30.885Z,1.60
2019-02-24T06:19:59.973Z,1.60
2019-02-24T06:22:32.680Z,1.70
2019-02-24T06:25:05.807Z,1.60
2019-02-24T06:27:34.920Z,1.60
2019-02-24T06:30:05.634Z,1.60
2019-02-24T06:32:34.984Z,1.60
2019-02-24T06:35:06.225Z,1.60
2019-02-24T06:37:35.908Z,1.60
2019-02-24T06:40:06.643Z,1.70
2019-02-24T06:42:35.755Z,1.70
2019-02-24T06:45:06.589Z,1.60
2019-02-24T06:47:35.715Z,1.60
2019-02-24T06:50:09.843Z,1.50
2019-02-24T06:52:38.952Z,1.50
2019-02-24T06:55:08.530Z,1.50
2019-02-24T06:57:37.623Z,1.40
2019-02-24T07:00:14.028Z,1.50
2019-02-24T07:02:40.359Z,1.40
2019-02-24T07:05:09.473Z,1.60
2019-02-24T07:07:38.577Z,1.70
2019-02-24T07:10:07.874Z,1.70
2019-02-24T07:12:36.988Z,1.60
2019-02-24T07:15:09.070Z,1.60
2019-02-24T07:17:38.181Z,1.80
2019-02-24T07:20:07.630Z,1.90
2019-02-24T07:22:36.758Z,1.90
2019-02-24T07:25:06.327Z,1.90
2019-02-24T07:27:35.433Z,1.90
2019-02-24T07:30:07.407Z,1.90
2019-02-24T07:32:36.515Z,2.00
2019-02-24T07:35:06.368Z,2.10
2019-02-24T07:37:35.631Z,2.20
2019-02-24T07:40:05.099Z,2.20
2019-02-24T07:42:34.210Z,2.20
2019-02-24T07:45:06.040Z,2.20
2019-02-24T07:47:35.188Z,2.00
2019-02-24T07:50:06.284Z,2.00
2019-02-24T07:52:35.380Z,2.10
2019-02-24T07:55:05.617Z,2.10
2019-02-24T07:57:34.738Z,2.30
2019-02-24T08:00:05.177Z,2.20
2019-02-24T08:02:34.283Z,2.30
2019-02-24T08:05:04.120Z,2.30
2019-02-24T08:07:33.223Z,2.40
2019-02-24T08:10:03.438Z,2.40
2019-02-24T08:12:33.508Z,2.50
2019-02-24T08:15:02.595Z,2.70
2019-02-24T08:17:31.720Z,2.60
2019-02-24T08:20:00.814Z,2.70
2019-02-24T08:22:29.923Z,2.80
2019-02-24T08:24:59.103Z,2.80
2019-02-24T08:27:28.437Z,2.80
2019-02-24T08:29:57.811Z,2.90
2019-02-24T08:32:26.908Z,3.00
2019-02-24T08:34:56.024Z,3.20
2019-02-24T08:37:25.119Z,3.20
2019-02-24T08:39:54.219Z,3.40
2019-02-24T08:42:23.350Z,3.50
2019-02-24T08:44:52.464Z,3.60
2019-02-24T08:47:21.554Z,3.70
2019-02-24T08:49:50.655Z,3.80
2019-02-24T08:52:19.763Z,4.00
2019-02-24T08:54:48.875Z,4.10
2019-02-24T08:57:17.990Z,4.10
2019-02-24T08:59:47.083Z,4.20
2019-02-24T09:02:16.195Z,4.20
2019-02-24T09:04:45.371Z,4.20
2019-02-24T09:07:14.539Z,4.30
2019-02-24T09:09:43.672Z,4.40
2019-02-24T09:12:12.768Z,4.50
2019-02-24T09:14:41.867Z,4.70
2019-02-24T09:17:10.976Z,4.80
2019-02-24T09:19:40.115Z,4.90
2019-02-24T09:22:09.206Z,5.00
2019-02-24T09:24:38.348Z,5.10
2019-02-24T09:27:07.464Z,5.20
2019-02-24T09:29:36.562Z,5.30
2019-02-24T09:32:05.950Z,5.40
2019-02-24T09:34:35.079Z,5.50
2019-02-24T09:37:04.388Z,5.60
2019-02-24T09:39:33.512Z,5.70
2019-02-24T09:42:02.608Z,5.70
2019-02-24T09:44:31.747Z,5.80
2019-02-24T09:47:00.847Z,5.90
2019-02-24T09:49:31.175Z,6.00
2019-02-24T09:52:00.363Z,6.10
2019-02-24T09:54:29.668Z,6.20
2019-02-24T09:56:58.783Z,6.30
2019-02-24T09:59:28.263Z,6.40
2019-02-24T10:01:58.526Z,6.40
2019-02-24T10:04:27.631Z,6.50
2019-02-24T10:06:56.988Z,6.60
2019-02-24T10:09:26.123Z,6.70
2019-02-24T10:11:55.220Z,6.80
2019-02-24T10:14:24.319Z,6.90
2019-02-24T10:16:53.455Z,7.00
2019-02-24T10:19:22.570Z,7.10
2019-02-24T10:21:52.105Z,7.20
2019-02-24T10:24:21.479Z,7.30
2019-02-24T10:26:50.591Z,7.40
2019-02-24T10:29:19.687Z,7.50
2019-02-24T10:31:48.827Z,7.60
2019-02-24T10:34:17.932Z,7.60
2019-02-24T10:36:47.073Z,7.70
2019-02-24T10:39:16.161Z,7.80
2019-02-24T10:41:45.257Z,7.90
2019-02-24T10:44:14.392Z,7.90
2019-02-24T10:46:44.055Z,8.10
2019-02-24T10:49:13.161Z,8.10
2019-02-24T10:51:42.284Z,8.20
2019-02-24T10:54:11.667Z,8.30
2019-02-24T10:56:40.774Z,8.40
2019-02-24T10:59:10.951Z,8.40
2019-02-24T11:01:40.078Z,8.50
2019-02-24T11:04:10.235Z,8.60
2019-02-24T11:06:39.331Z,8.70
2019-02-24T11:09:08.463Z,8.80
2019-02-24T11:11:37.559Z,8.90
2019-02-24T11:14:06.688Z,9.00
2019-02-24T11:16:35.775Z,9.10
2019-02-24T11:19:04.932Z,9.20
2019-02-24T11:21:34.058Z,9.30
2019-02-24T11:24:03.643Z,9.40
2019-02-24T11:26:32.751Z,9.50
2019-02-24T11:29:04.002Z,9.70
2019-02-24T11:31:38.338Z,9.90
2019-02-24T11:34:03.938Z,10.00
2019-02-24T11:36:34.135Z,10.20
2019-02-24T11:39:04.222Z,10.40
2019-02-24T11:41:34.637Z,10.60
2019-02-24T11:44:03.735Z,10.70
2019-02-24T11:46:32.847Z,10.90
2019-02-24T11:49:03.796Z,11.10
2019-02-24T11:51:32.893Z,11.30
2019-02-24T11:54:02.308Z,11.60
2019-02-24T11:56:31.405Z,11.70
2019-02-24T11:59:00.499Z,11.90
2019-02-24T12:01:29.751Z,12.00
2019-02-24T12:03:59.950Z,12.10
2019-02-24T12:06:29.403Z,12.20
2019-02-24T12:09:05.087Z,12.30
2019-02-24T12:11:31.687Z,12.50
2019-02-24T12:14:01.828Z,12.60
2019-02-24T12:16:32.144Z,12.80
2019-02-24T12:19:01.867Z,12.90
2019-02-24T12:21:30.985Z,13.10
2019-02-24T12:24:00.088Z,13.20
2019-02-24T12:26:29.228Z,13.30
2019-02-24T12:28:58.394Z,13.40
2019-02-24T12:31:27.540Z,13.50
2019-02-24T12:33:56.947Z,13.60
2019-02-24T12:36:26.154Z,13.80
2019-02-24T12:38:55.251Z,13.90
2019-02-24T12:41:24.355Z,14.00
2019-02-24T12:43:53.735Z,14.10
2019-02-24T12:46:22.840Z,14.20
2019-02-24T12:48:51.946Z,14.30
2019-02-24T12:51:21.330Z,14.30
2019-02-24T12:53:50.447Z,14.30
2019-02-24T12:56:19.550Z,14.30
2019-02-24T12:58:48.935Z,14.50
2019-02-24T13:01:18.031Z,14.70
2019-02-24T13:03:47.435Z,14.90
2019-02-24T13:06:16.531Z,15.10
2019-02-24T13:08:45.634Z,15.30
2019-02-24T13:11:14.771Z,15.50
2019-02-24T13:13:43.919Z,15.70
2019-02-24T13:16:13.059Z,15.90
2019-02-24T13:18:42.166Z,16.00
2019-02-24T13:21:11.259Z,16.20
2019-02-24T13:23:40.403Z,16.30
2019-02-24T13:26:09.500Z,16.40
2019-02-24T13:28:38.611Z,16.50
2019-02-24T13:31:07.760Z,16.60
2019-02-24T13:33:36.904Z,16.70
2019-02-24T13:36:06.002Z,16.70
2019-02-24T13:38:36.174Z,16.70
2019-02-24T13:41:06.266Z,16.70
2019-02-24T13:43:35.368Z,16.70
2019-02-24T13:46:04.469Z,16.70
2019-02-24T13:48:33.603Z,16.80
2019-02-24T13:51:03.904Z,16.80
2019-02-24T13:53:33.440Z,16.90
2019-02-24T13:56:02.580Z,17.00
2019-02-24T13:58:31.679Z,17.00
2019-02-24T14:01:02.723Z,17.10
2019-02-24T14:03:32.328Z,17.30
2019-02-24T14:06:01.431Z,17.40
2019-02-24T14:08:30.559Z,17.50
2019-02-24T14:10:59.702Z,17.70
2019-02-24T14:13:28.803Z,17.90
2019-02-24T14:15:57.939Z,18.10
2019-02-24T14:18:27.071Z,18.20
2019-02-24T14:20:56.317Z,18.30
2019-02-24T14:23:25.512Z,18.30
2019-02-24T14:25:54.606Z,18.40
2019-02-24T14:28:23.707Z,18.40
2019-02-24T14:30:52.850Z,18.50
2019-02-24T14:33:21.948Z,18.50
2019-02-24T14:35:51.077Z,18.50
2019-02-24T14:38:20.267Z,18.50
2019-02-24T14:40:49.372Z,18.50
2019-02-24T14:43:18.779Z,18.50
2019-02-24T14:45:49.870Z,18.50
2019-02-24T14:48:19.056Z,18.50
2019-02-24T14:50:48.157Z,18.60
2019-02-24T14:53:17.311Z,18.60
2019-02-24T14:55:46.415Z,18.60
2019-02-24T14:58:15.512Z,18.50
2019-02-24T15:00:44.658Z,18.50
2019-02-24T15:03:33.179Z,18.50
2019-02-24T15:06:02.681Z,18.50
2019-02-24T15:08:31.780Z,18.50
2019-02-24T15:11:02.329Z,18.50
2019-02-24T15:13:31.523Z,18.50
2019-02-24T15:16:00.627Z,18.40
2019-02-24T15:18:30.615Z,18.30
2019-02-24T15:21:00.112Z,18.20
2019-02-24T15:23:29.423Z,18.00
2019-02-24T15:25:58.526Z,17.80
2019-02-24T15:28:27.677Z,17.70
2019-02-24T15:30:57.112Z,17.50
2019-02-24T15:33:26.215Z,17.40
2019-02-24T15:35:55.355Z,17.30
2019-02-24T15:38:24.455Z,17.10
2019-02-24T15:40:53.599Z,17.00
2019-02-24T15:43:22.701Z,16.90
2019-02-24T15:45:51.803Z,16.80
2019-02-24T15:48:20.940Z,16.70
2019-02-24T15:50:50.293Z,16.70
2019-02-24T15:53:19.405Z,16.60
2019-02-24T15:55:48.552Z,16.60
2019-02-24T15:58:17.992Z,16.50
2019-02-24T16:00:47.267Z,16.40
2019-02-24T16:03:16.411Z,16.20
2019-02-24T16:05:45.511Z,16.20
2019-02-24T16:08:14.891Z,16.10
2019-02-24T16:10:44.031Z,15.90
2019-02-24T16:13:16.951Z,15.80
2019-02-24T16:15:43.987Z,15.60
2019-02-24T16:18:14.092Z,15.50
2019-02-24T16:20:43.191Z,15.30
2019-02-24T16:23:12.459Z,15.20
2019-02-24T16:25:41.951Z,15.00
2019-02-24T16:28:11.047Z,14.80
2019-02-24T16:30:40.153Z,14.70
2019-02-24T16:33:10.796Z,14.50
2019-02-24T16:35:40.191Z,14.20
2019-02-24T16:38:09.771Z,13.90
2019-02-24T16:40:38.913Z,13.80
2019-02-24T16:43:09.082Z,13.70
2019-02-24T16:45:38.223Z,13.50
2019-02-24T16:48:07.379Z,13.40
2019-02-24T16:50:36.495Z,13.20
2019-02-24T16:53:05.643Z,13.00
2019-02-24T16:55:34.739Z,12.80
2019-02-24T16:58:05.025Z,12.70
2019-02-24T17:00:34.167Z,12.50
2019-02-24T17:03:04.035Z,12.30
2019-02-24T17:05:33.168Z,12.20
2019-02-24T17:08:03.780Z,12.00
2019-02-24T17:10:32.929Z,11.80
2019-02-24T17:13:02.916Z,11.70
2019-02-24T17:15:31.987Z,11.70
2019-02-24T17:18:03.547Z,11.50
2019-02-24T17:20:32.643Z,11.30
2019-02-24T17:23:01.787Z,11.10
2019-02-24T17:25:30.905Z,11.00
2019-02-24T17:28:00.039Z,11.00
2019-02-24T17:30:31.107Z,11.00
2019-02-24T17:33:00.252Z,10.90
2019-02-24T17:35:31.822Z,10.80
2019-02-24T17:38:02.262Z,10.70
2019-02-24T17:40:31.364Z,10.50
2019-02-24T17:43:00.463Z,10.40
2019-02-24T17:45:30.811Z,10.10
2019-02-24T17:47:59.903Z,10.00
2019-02-24T17:50:29.048Z,9.90
2019-02-24T17:52:59.212Z,9.90
2019-02-24T17:55:28.343Z,9.80
2019-02-24T17:57:57.445Z,9.60
2019-02-24T18:00:32.023Z,9.50
2019-02-24T18:03:01.827Z,9.40
2019-02-24T18:05:30.919Z,9.30
2019-02-24T18:08:00.061Z,9.30
2019-02-24T18:10:29.223Z,9.30
2019-02-24T18:12:58.329Z,9.30
2019-02-24T18:15:27.425Z,9.20
2019-02-24T18:17:56.640Z,9.10
2019-02-24T18:20:25.731Z,8.90
2019-02-24T18:22:54.872Z,8.90
2019-02-24T18:25:24.006Z,8.80
2019-02-24T18:27:53.100Z,8.60
2019-02-24T18:30:27.521Z,8.60
2019-02-24T18:32:56.659Z,8.60
2019-02-24T18:35:26.105Z,8.50
2019-02-24T18:37:56.315Z,8.50
2019-02-24T18:40:25.408Z,8.50
2019-02-24T18:43:00.227Z,8.50
2019-02-24T18:45:25.345Z,8.40
2019-02-24T18:47:54.488Z,8.30
2019-02-24T18:50:23.633Z,8.30
2019-02-24T18:52:52.728Z,8.30
2019-02-24T18:55:21.863Z,8.20
2019-02-24T18:57:50.958Z,8.20
2019-02-24T19:00:21.502Z,8.10
2019-02-24T19:02:50.633Z,7.90
2019-02-24T19:05:19.725Z,7.70
2019-02-24T19:07:48.859Z,7.70
2019-02-24T19:10:22.183Z,7.60
2019-02-24T19:12:52.338Z,7.60
2019-02-24T19:15:23.210Z,7.50
2019-02-24T19:17:52.350Z,7.40
2019-02-24T19:20:22.697Z,7.30
2019-02-24T19:22:51.798Z,7.30
2019-02-24T19:25:20.921Z,7.20
2019-02-24T19:27:50.015Z,7.30
2019-02-24T19:30:21.196Z,7.30
2019-02-24T19:32:50.402Z,7.30
2019-02-24T19:35:19.707Z,7.30
2019-02-24T19:37:48.884Z,7.20
2019-02-24T19:40:18.956Z,7.30
2019-02-24T19:42:48.051Z,7.10
2019-02-24T19:45:18.986Z,7.00
2019-02-24T19:47:49.072Z,7.00
2019-02-24T19:50:18.240Z,7.00
2019-02-24T19:52:47.375Z,7.00
2019-02-24T19:55:17.248Z,6.80
2019-02-24T19:57:46.383Z,6.80
2019-02-24T20:00:25.779Z,6.80
2019-02-24T20:02:55.113Z,6.80
2019-02-24T20:05:24.616Z,6.60
2019-02-24T20:07:54.583Z,6.50
2019-02-24T20:10:25.894Z,6.40
2019-02-24T20:12:54.993Z,6.40
2019-02-24T20:15:24.124Z,6.40
2019-02-24T20:17:53.219Z,6.30
2019-02-24T20:20:22.317Z,6.30
2019-02-24T20:22:51.455Z,6.30
2019-02-24T20:25:22.032Z,6.20
2019-02-24T20:27:51.127Z,6.20
2019-02-24T20:30:28.217Z,6.20
2019-02-24T20:32:57.360Z,6.20
2019-02-24T20:35:27.555Z,6.00
2019-02-24T20:37:56.692Z,6.00
2019-02-24T20:40:25.831Z,5.90
2019-02-24T20:42:54.924Z,6.10
2019-02-24T20:45:24.487Z,6.00
2019-02-24T20:47:54.224Z,6.00
2019-02-24T20:50:32.055Z,5.90
2019-02-24T20:53:02.671Z,5.90
2019-02-24T20:55:32.051Z,5.90
2019-02-24T20:58:02.699Z,5.90
2019-02-24T21:00:35.479Z,5.80
2019-02-24T21:03:04.616Z,5.70
2019-02-24T21:05:33.710Z,5.60
2019-02-24T21:08:03.674Z,5.50
2019-02-24T21:10:32.801Z,5.50
2019-02-24T21:13:01.895Z,5.50
2019-02-24T21:15:31.045Z,5.60
2019-02-24T21:18:00.141Z,5.70
2019-02-24T21:20:32.678Z,5.80
2019-02-24T21:23:02.785Z,5.80
2019-02-24T21:25:31.894Z,5.80
2019-02-24T21:28:02.718Z,5.60
2019-02-24T21:30:31.955Z,5.40
2019-02-24T21:33:02.147Z,5.30
2019-02-24T21:35:32.233Z,5.20
2019-02-24T21:38:01.755Z,5.10
2019-02-24T21:40:30.854Z,5.00
2019-02-24T21:42:59.964Z,5.00
2019-02-24T21:45:30.231Z,5.10
2019-02-24T21:47:59.359Z,5.10
2019-02-24T21:50:28.763Z,5.10
2019-02-24T21:52:57.871Z,5.10
2019-02-24T21:55:26.995Z,5.20
2019-02-24T21:57:56.113Z,5.20
2019-02-24T22:00:27.004Z,5.30
2019-02-24T22:02:56.120Z,5.40
2019-02-24T22:05:25.210Z,5.40
2019-02-24T22:07:55.786Z,5.10
2019-02-24T22:10:25.117Z,5.00
2019-02-24T22:12:54.226Z,5.00
2019-02-24T22:15:24.560Z,4.90
2019-02-24T22:17:53.667Z,4.80
2019-02-24T22:20:22.768Z,5.00
2019-02-24T22:22:51.859Z,5.00
2019-02-24T22:25:20.968Z,4.90
2019-02-24T22:27:50.064Z,4.80
2019-02-24T22:30:21.090Z,4.70
2019-02-24T22:32:50.180Z,4.70
2019-02-24T22:35:19.277Z,4.60
2019-02-24T22:37:48.667Z,4.60
2019-02-24T22:40:17.773Z,4.50
2019-02-24T22:42:47.947Z,4.50
2019-02-24T22:45:22.980Z,4.40
2019-02-24T22:47:52.087Z,4.30
2019-02-24T22:50:21.181Z,4.30
2019-02-24T22:52:50.287Z,4.50
2019-02-24T22:55:19.667Z,4.50
2019-02-24T22:57:48.763Z,4.60
2019-02-24T23:00:45.311Z,4.70
2019-02-24T23:03:16.019Z,4.50
2019-02-24T23:05:45.133Z,4.50
2019-02-24T23:08:14.228Z,4.60
2019-02-24T23:10:43.322Z,4.50
2019-02-24T23:13:12.439Z,4.30
